Engle, Kentucky
Current Conditions -  °F | °C
As of 4:53 PM on Monday 22 Dec 2014 (Local Time) from KJKL Reporting Station
Broken Clouds Broken Clouds  
Wind Chill: 54°   Ceiling: 10000
Heat Index: 54°   Visibility: 10mi
Dew Point: 39°   Wind: 5mph
Humidity: 57%   Direction: NA
Pressure: 29.83"   Gusts: NA
Location:  37.36°N, 83.3231°W
Report Text: KJKL 222153Z AUTO VRB04KT 10SM BKN100 12/04 A2983 RMK AO2 SLP101 T01220039
Loading
Personal Weather Stations






























Interactive Weather Map New forecast layout! Learn more

10-Day Weather Forecast

Advertisements
Track Severe Weather on mobile